Time;durP1;ratioP1;P1;durP2;ratioP2;P2;SDS_P1;SDS_P2;PMS_P1;PMS_P2;Temp;Humidity;BMP_temperature;BMP_pressure;BME280_temperature;BME280_humidity;BME280_pressure;Samples;Min_cycle;Max_cycle;Signal;HPM_P1;HPM_P2
2024/01/30 00:00:09;;;;;;;6.33;4.80;;;;;;;-144.30;62.08;86605.31;5069916;28;20294;-61
2024/01/30 00:02:36;;;;;;;5.60;4.50;;;;;;;-144.30;62.35;86597.34;5069960;28;20197;-62
2024/01/30 00:05:04;;;;;;;7.37;4.73;;;;;;;-144.30;62.09;86607.31;5069848;28;20580;-61
2024/01/30 00:07:31;;;;;;;6.00;4.90;;;;;;;-144.30;61.99;86458.16;5069943;28;20579;-63
2024/01/30 00:09:58;;;;;;;5.73;5.10;;;;;;;-144.30;61.84;86593.38;5069308;28;20264;-54
2024/01/30 00:12:27;;;;;;;6.53;4.67;;;;;;;-144.30;62.00;86617.25;5069715;28;20218;-54
2024/01/30 00:14:54;;;;;;;6.77;5.00;;;;;;;-144.30;62.36;86633.16;5069722;28;20203;-56
2024/01/30 00:17:21;;;;;;;8.90;5.57;;;;;;;-144.30;62.44;86571.50;5069544;28;20644;-54
2024/01/30 00:19:48;;;;;;;9.00;4.97;;;;;;;-144.30;62.31;86585.44;5069790;28;20200;-61
2024/01/30 00:22:15;;;;;;;5.93;5.27;;;;;;;-144.30;62.54;86553.59;5069781;28;20199;-61
2024/01/30 00:24:42;;;;;;;7.57;5.03;;;;;;;-144.30;62.63;86581.44;5069737;28;20695;-54
2024/01/30 00:27:09;;;;;;;7.90;4.97;;;;;;;-144.30;62.39;86593.38;5069263;28;20288;-55
2024/01/30 00:29:38;;;;;;;5.80;4.77;;;;;;;-144.30;62.36;86593.38;5069717;28;20285;-56
2024/01/30 00:32:06;;;;;;;6.67;5.10;;;;;;;-144.30;62.17;86585.44;5069416;28;20281;-54
2024/01/30 00:34:33;;;;;;;7.57;4.83;;;;;;;-144.30;62.11;86579.47;5069512;28;20260;-62
2024/01/30 00:37:00;;;;;;;6.87;4.90;;;;;;;-144.30;61.70;86573.50;5069451;28;20203;-54
2024/01/30 00:39:27;;;;;;;7.73;4.67;;;;;;;-144.30;61.71;86587.41;5069156;28;20290;-62
2024/01/30 00:41:54;;;;;;;4.67;4.20;;;;;;;-144.30;62.06;86587.41;5069549;28;20198;-55
2024/01/30 00:44:20;;;;;;;5.83;4.50;;;;;;;-144.30;61.74;86559.56;5069380;28;20199;-54
2024/01/30 00:46:49;;;;;;;7.10;4.63;;;;;;;-144.30;61.90;86589.41;5069174;28;20257;-55
2024/01/30 00:49:16;;;;;;;6.17;4.17;;;;;;;-144.30;61.69;86525.75;5069091;28;20257;-56
2024/01/30 00:51:43;;;;;;;6.20;4.57;;;;;;;-144.30;61.93;86575.47;5069507;28;20314;-56
2024/01/30 00:54:10;;;;;;;5.90;4.40;;;;;;;-144.30;61.99;86553.59;5069105;28;20202;-55
2024/01/30 00:56:37;;;;;;;8.10;5.60;;;;;;;-144.30;62.32;86575.47;5069516;28;20282;-61
2024/01/30 00:59:04;;;;;;;8.07;5.23;;;;;;;-144.30;62.22;86573.50;5069404;28;20200;-62
2024/01/30 01:01:31;;;;;;;7.03;5.30;;;;;;;-144.30;62.42;86573.50;5069239;28;20196;-62
2024/01/30 01:03:59;;;;;;;6.80;5.37;;;;;;;-144.30;62.23;86577.47;5069779;28;20198;-62
2024/01/30 01:06:26;;;;;;;5.83;5.10;;;;;;;-144.30;62.41;86573.50;5069118;28;20285;-62
2024/01/30 01:08:53;;;;;;;7.80;5.47;;;;;;;-144.30;62.71;86597.34;5069308;28;20202;-54
2024/01/30 01:11:20;;;;;;;8.87;5.47;;;;;;;-144.30;62.76;86561.56;5069033;28;20659;-61
2024/01/30 01:13:47;;;;;;;7.37;5.20;;;;;;;-144.30;63.02;86539.69;5069085;28;20289;-56
2024/01/30 01:16:14;;;;;;;7.53;5.23;;;;;;;-144.30;63.31;86565.53;5068994;28;20203;-55
2024/01/30 01:18:41;;;;;;;7.70;5.00;;;;;;;-144.30;63.29;86517.81;5069185;28;20253;-54
2024/01/30 01:21:10;;;;;;;6.30;4.87;;;;;;;-144.30;63.66;86613.28;5069910;28;20231;-54
2024/01/30 01:23:37;;;;;;;7.13;5.20;;;;;;;-144.30;64.15;86589.41;5073349;28;20282;-55
2024/01/30 01:26:04;;;;;;;10.50;6.03;;;;;;;-144.30;64.74;86565.53;5073183;28;20199;-55
2024/01/30 01:28:31;;;;;;;8.23;5.50;;;;;;;-144.30;65.24;86579.47;5072583;28;20231;-55
2024/01/30 01:31:04;;;;;;;7.27;5.63;;;;;;;-144.30;65.66;86611.28;5072918;28;20241;-55
2024/01/30 01:33:31;;;;;;;8.00;5.93;;;;;;;-144.30;65.64;86591.38;5072896;28;20209;-55
2024/01/30 01:35:58;;;;;;;10.37;5.77;;;;;;;-144.30;65.59;86613.28;5072884;28;20747;-54
2024/01/30 01:38:27;;;;;;;10.50;5.77;;;;;;;-144.30;66.00;86619.22;5072923;28;20668;-55
2024/01/30 01:40:54;;;;;;;8.07;5.53;;;;;;;-144.30;65.86;86609.28;5072659;28;20290;-55
2024/01/30 01:43:21;;;;;;;8.70;5.93;;;;;;;-144.30;66.38;86603.31;5072596;28;20240;-54
2024/01/30 01:45:47;;;;;;;8.33;6.43;;;;;;;-144.30;66.46;86645.09;5072406;28;20294;-55
2024/01/30 01:48:14;;;;;;;9.77;5.93;;;;;;;-144.30;66.96;86609.28;5071968;28;20264;-55
2024/01/30 01:50:42;;;;;;;10.37;6.87;;;;;;;-144.30;67.02;86635.13;5072232;28;20738;-55
2024/01/30 01:53:09;;;;;;;14.20;9.20;;;;;;;-144.30;67.39;86617.25;5072270;28;20310;-54
2024/01/30 01:55:38;;;;;;;15.47;9.47;;;;;;;-144.30;67.41;86621.22;5072435;28;20693;-55
2024/01/30 01:58:06;;;;;;;15.10;7.97;;;;;;;-144.30;67.41;86635.13;5072375;28;20198;-55
2024/01/30 02:00:33;;;;;;;11.60;6.63;;;;;;;-144.30;68.21;86615.25;5072413;28;20284;-56
2024/01/30 02:03:01;;;;;;;10.90;6.30;;;;;;;-144.30;69.00;86633.16;5072285;28;20281;-56
2024/01/30 02:05:28;;;;;;;9.60;6.10;;;;;;;-144.30;69.03;86573.50;5072193;28;20639;-55
2024/01/30 02:07:55;;;;;;;14.27;6.60;;;;;;;-144.30;69.39;86649.06;5072209;28;20200;-55
2024/01/30 02:10:23;;;;;;;9.03;5.43;;;;;;;-144.30;69.21;86659.00;5072344;28;20742;-56
2024/01/30 02:12:51;;;;;;;10.63;5.77;;;;;;;-144.30;68.92;86617.25;5072356;28;20740;-56
2024/01/30 02:15:18;;;;;;;11.87;5.80;;;;;;;-144.30;68.64;86641.09;5072130;28;20735;-54
2024/01/30 02:17:45;;;;;;;8.43;5.90;;;;;;;-144.30;68.41;86635.13;5071971;28;20284;-53
2024/01/30 02:20:13;;;;;;;9.30;6.00;;;;;;;-144.30;67.96;86603.31;5071978;28;20287;-55
2024/01/30 02:22:42;;;;;;;7.40;5.30;;;;;;;-144.30;67.98;86603.31;5072192;28;20260;-54
2024/01/30 02:25:09;;;;;;;11.33;6.23;;;;;;;-144.30;68.10;86621.22;5072113;28;20233;-55
2024/01/30 02:27:36;;;;;;;8.13;6.13;;;;;;;-144.30;68.64;86643.09;5071657;28;20286;-56
2024/01/30 02:30:04;;;;;;;8.77;5.77;;;;;;;-144.30;68.69;86609.28;5071903;28;20199;-56
2024/01/30 02:32:32;;;;;;;9.17;6.43;;;;;;;-144.30;68.89;86645.09;5070790;28;20235;-54
2024/01/30 02:34:59;;;;;;;9.70;7.07;;;;;;;-144.30;69.51;86672.94;5071769;28;20199;-53
2024/01/30 02:37:26;;;;;;;15.40;7.07;;;;;;;-144.30;70.00;86627.19;5071514;28;20193;-61
2024/01/30 02:39:54;;;;;;;14.07;7.77;;;;;;;-144.30;69.61;86623.22;5071714;28;20201;-61
2024/01/30 02:42:21;;;;;;;14.53;8.17;;;;;;;-144.30;70.75;86647.06;5071514;28;20312;-61
2024/01/30 02:44:49;;;;;;;14.33;8.67;;;;;;;-144.30;70.33;86659.00;5071624;28;20284;-61
2024/01/30 02:47:16;;;;;;;13.83;8.73;;;;;;;-144.30;69.97;86637.13;5071472;28;20720;-61
2024/01/30 02:49:43;;;;;;;15.57;9.60;;;;;;;-144.30;70.82;86613.28;5071602;28;20200;-53
2024/01/30 02:52:10;;;;;;;17.53;9.53;;;;;;;-144.30;70.29;86643.09;5071380;28;20278;-54
2024/01/30 02:54:36;;;;;;;20.20;11.77;;;;;;;-144.30;70.64;86661.00;5071609;28;20669;-54
2024/01/30 02:57:05;;;;;;;25.77;12.87;;;;;;;-144.30;70.74;86657.03;5071497;28;20284;-62
2024/01/30 02:59:35;;;;;;;28.23;12.20;;;;;;;-144.30;71.41;86621.22;5071170;28;20711;-61
2024/01/30 03:02:02;;;;;;;15.27;9.37;;;;;;;-144.30;71.88;86641.09;5070833;28;20197;-61
2024/01/30 03:04:30;;;;;;;18.33;10.73;;;;;;;-144.30;71.96;86639.13;5071018;28;20217;-55
2024/01/30 03:06:57;;;;;;;15.80;10.17;;;;;;;-144.30;72.13;86635.13;5070935;28;20201;-54
2024/01/30 03:09:23;;;;;;;14.63;8.53;;;;;;;-144.30;72.66;86639.13;5070699;28;20227;-54
2024/01/30 03:11:50;;;;;;;13.90;8.87;;;;;;;-144.30;71.88;86664.97;5070549;28;20222;-54
2024/01/30 03:14:19;;;;;;;15.47;9.03;;;;;;;-144.30;72.19;86657.03;5070798;28;20197;-56
2024/01/30 03:16:46;;;;;;;13.93;8.47;;;;;;;-144.30;71.74;86641.09;5070726;28;20201;-54
2024/01/30 03:19:13;;;;;;;16.90;9.47;;;;;;;-144.30;71.72;86657.03;5070866;28;20284;-55
2024/01/30 03:21:40;;;;;;;16.87;8.30;;;;;;;-144.30;71.48;86434.28;5071159;28;20747;-55
2024/01/30 03:24:07;;;;;;;11.07;6.93;;;;;;;-144.30;70.97;86639.13;5070819;28;20299;-54
2024/01/30 03:26:34;;;;;;;11.77;7.23;;;;;;;-144.30;69.93;86633.16;5070671;28;20631;-54
2024/01/30 03:29:01;;;;;;;11.33;7.10;;;;;;;-144.30;69.92;86655.03;5070702;28;20259;-61
2024/01/30 03:31:29;;;;;;;14.63;7.23;;;;;;;-144.30;69.35;86653.03;5070385;28;20201;-61
2024/01/30 03:33:56;;;;;;;11.47;7.17;;;;;;;-144.30;70.00;86657.03;5070699;28;20227;-61
2024/01/30 03:36:23;;;;;;;13.20;6.90;;;;;;;-144.30;69.66;86627.19;5070644;28;20197;-61
2024/01/30 03:38:50;;;;;;;9.97;6.67;;;;;;;-144.30;69.41;86629.19;5070876;28;20236;-60
2024/01/30 03:41:17;;;;;;;15.77;8.03;;;;;;;-144.30;69.29;86643.09;5070589;28;20235;-61
2024/01/30 03:43:44;;;;;;;12.37;8.07;;;;;;;-144.30;70.02;86615.25;5070545;28;20226;-60
2024/01/30 03:46:13;;;;;;;14.60;7.50;;;;;;;-144.30;71.24;86641.09;5070354;28;20199;-61
2024/01/30 03:48:41;;;;;;;11.83;7.50;;;;;;;-144.30;71.27;86664.97;5070409;28;20282;-60
2024/01/30 03:51:08;;;;;;;11.27;7.27;;;;;;;-144.30;71.05;86633.16;5070744;28;20249;-61
2024/01/30 03:53:35;;;;;;;13.83;7.53;;;;;;;-144.30;70.84;86633.16;5069980;28;20603;-61
2024/01/30 03:56:03;;;;;;;13.00;7.97;;;;;;;-144.30;71.02;86549.63;5070232;28;20197;-61
2024/01/30 03:58:30;;;;;;;16.90;8.33;;;;;;;-144.30;70.85;86659.00;5069843;28;20244;-54
2024/01/30 04:00:57;;;;;;;11.87;8.00;;;;;;;-144.30;71.64;86633.16;5070066;28;20231;-55
2024/01/30 04:03:24;;;;;;;14.33;8.40;;;;;;;-144.30;72.08;86647.06;5069429;28;20261;-54
2024/01/30 04:05:52;;;;;;;14.97;8.43;;;;;;;-144.30;72.05;86672.94;5069652;28;20650;-54
2024/01/30 04:08:19;;;;;;;12.20;7.40;;;;;;;-144.30;71.84;86621.22;5069462;28;20234;-55
2024/01/30 04:10:47;;;;;;;13.37;8.20;;;;;;;-144.30;71.84;86633.16;5069812;28;20284;-55
2024/01/30 04:13:14;;;;;;;14.23;8.33;;;;;;;-144.30;71.46;86633.16;5069454;28;20270;-61
2024/01/30 04:15:41;;;;;;;15.00;8.50;;;;;;;-144.30;72.41;86674.91;5069855;28;20200;-61
2024/01/30 04:18:08;;;;;;;17.43;9.37;;;;;;;-144.30;72.65;86637.13;5069941;28;20231;-61
2024/01/30 04:20:35;;;;;;;17.60;9.07;;;;;;;-144.30;72.19;86674.91;5069545;28;20195;-54
2024/01/30 04:23:04;;;;;;;15.77;8.87;;;;;;;-144.30;72.28;86639.13;5069828;28;20226;-60
2024/01/30 04:25:31;;;;;;;14.97;8.13;;;;;;;-144.30;72.54;86645.09;5070224;28;20671;-60
2024/01/30 04:27:58;;;;;;;19.67;8.97;;;;;;;-144.30;73.10;86651.06;5069909;28;20323;-61
2024/01/30 04:30:25;;;;;;;17.30;10.37;;;;;;;-144.30;73.76;86661.00;5069832;28;20192;-61
2024/01/30 04:32:52;;;;;;;22.03;10.60;;;;;;;-144.30;73.78;86661.00;5069775;28;20265;-61
2024/01/30 04:35:20;;;;;;;18.03;9.30;;;;;;;-144.30;73.87;86645.09;5070032;28;20261;-61
2024/01/30 04:37:47;;;;;;;21.27;10.07;;;;;;;-144.30;74.20;86662.97;5069915;28;20196;-61
2024/01/30 04:40:15;;;;;;;22.13;10.70;;;;;;;-144.30;73.51;86657.03;5069486;28;20240;-61
2024/01/30 04:42:42;;;;;;;19.07;9.00;;;;;;;-144.30;73.63;86653.03;5069907;28;20192;-60
2024/01/30 04:45:10;;;;;;;10.83;7.80;;;;;;;-144.30;72.59;86625.19;5069779;28;20261;-61
2024/01/30 04:47:38;;;;;;;17.23;8.67;;;;;;;-144.30;72.30;86625.19;5069360;28;20195;-60
2024/01/30 04:50:07;;;;;;;13.70;7.93;;;;;;;-144.30;72.38;86607.31;5069802;28;20207;-61
2024/01/30 04:52:34;;;;;;;17.90;8.00;;;;;;;-144.30;73.28;86653.03;5069417;28;20229;-60
2024/01/30 04:55:01;;;;;;;15.00;8.67;;;;;;;-144.30;73.22;86668.94;5069723;28;20226;-61
2024/01/30 04:57:30;;;;;;;11.50;7.27;;;;;;;-144.30;73.21;86649.06;5065885;28;20250;-61
2024/01/30 04:59:57;;;;;;;13.63;7.57;;;;;;;-144.30;72.85;86692.81;5068712;28;20287;-61
2024/01/30 05:02:24;;;;;;;15.13;8.53;;;;;;;-144.30;73.00;86649.06;5068654;28;20654;-58
2024/01/30 05:04:51;;;;;;;15.07;8.10;;;;;;;-144.30;72.64;86668.94;5049739;28;20233;-53
2024/01/30 05:07:18;;;;;;;11.57;8.07;;;;;;;-144.30;72.97;86659.00;5063014;28;20250;-53
2024/01/30 05:09:45;;;;;;;13.17;7.57;;;;;;;-144.30;72.99;86645.09;5069773;28;20625;-53
2024/01/30 05:12:12;;;;;;;15.20;7.53;;;;;;;-144.30;73.16;86664.97;5069342;28;20734;-53
2024/01/30 05:14:41;;;;;;;13.63;8.20;;;;;;;-144.30;73.16;86684.84;5063515;28;20262;-53
2024/01/30 05:17:10;;;;;;;11.20;7.83;;;;;;;-144.30;72.94;86657.03;5061096;28;20284;-58
2024/01/30 05:19:37;;;;;;;24.17;7.80;;;;;;;-144.30;72.31;86651.06;5056788;28;20283;-58
2024/01/30 05:22:04;;;;;;;14.97;7.77;;;;;;;-144.30;72.41;86712.69;5056315;28;20667;-58
2024/01/30 05:24:31;;;;;;;15.20;8.77;;;;;;;-144.30;72.44;86662.97;5068764;28;20204;-61
2024/01/30 05:26:58;;;;;;;17.67;8.40;;;;;;;-144.30;72.81;86645.09;5068632;28;20269;-57
2024/01/30 05:29:25;;;;;;;15.87;8.47;;;;;;;-144.30;72.50;86641.09;5066067;28;20320;-58
2024/01/30 05:31:53;;;;;;;23.33;9.20;;;;;;;-144.30;72.35;86627.19;5068920;28;20742;-58
2024/01/30 05:34:20;;;;;;;18.60;8.93;;;;;;;-144.30;72.66;86655.03;5068700;28;20237;-58
2024/01/30 05:36:47;;;;;;;17.87;8.83;;;;;;;-144.30;72.69;86651.06;5069265;28;20657;-58
2024/01/30 05:39:14;;;;;;;16.80;9.37;;;;;;;-144.30;72.20;86633.16;5068802;28;20195;-58
2024/01/30 05:41:41;;;;;;;16.63;9.00;;;;;;;-144.30;72.10;86657.03;5067861;28;20288;-58
2024/01/30 05:44:09;;;;;;;17.13;9.50;;;;;;;-144.30;72.22;86686.84;5065675;28;20283;-57
2024/01/30 05:46:37;;;;;;;20.03;9.53;;;;;;;-144.30;72.22;86633.16;5067519;28;20208;-57
2024/01/30 05:49:06;;;;;;;16.23;9.33;;;;;;;-144.30;72.50;86597.34;5086156;28;20300;-59
2024/01/30 05:51:33;;;;;;;12.07;8.17;;;;;;;-144.30;72.39;86641.09;5081507;28;20269;-58
2024/01/30 05:54:00;;;;;;;19.20;9.37;;;;;;;-144.30;72.49;86631.16;5058976;28;20311;-53
2024/01/30 05:56:28;;;;;;;15.87;8.60;;;;;;;-144.30;73.21;86629.19;5057167;28;20208;-53
2024/01/30 05:58:55;;;;;;;17.77;9.10;;;;;;;-144.30;73.58;86645.09;5054200;28;20283;-54
2024/01/30 06:01:22;;;;;;;16.13;9.00;;;;;;;-144.30;73.22;86647.06;5057234;28;20665;-55
2024/01/30 06:03:49;;;;;;;15.57;8.87;;;;;;;-144.30;73.17;86625.19;5079876;28;20203;-57
2024/01/30 06:06:17;;;;;;;15.43;9.20;;;;;;;-144.30;72.90;86672.94;5088451;28;20279;-57
2024/01/30 06:08:44;;;;;;;19.43;8.37;;;;;;;-144.30;73.00;86643.09;5090656;28;20288;-57
2024/01/30 06:11:12;;;;;;;14.00;8.07;;;;;;;-144.30;72.33;86661.00;5092578;28;20209;-57
2024/01/30 06:13:38;;;;;;;20.30;8.97;;;;;;;-144.30;71.70;86615.25;5092563;28;20223;-57
2024/01/30 06:16:06;;;;;;;17.60;8.47;;;;;;;-144.30;72.48;86643.09;5092520;28;20652;-59
2024/01/30 06:18:33;;;;;;;17.30;8.00;;;;;;;-144.30;72.71;86631.16;5092462;28;20199;-57
2024/01/30 06:21:00;;;;;;;23.83;9.00;;;;;;;-144.30;72.64;86649.06;5092644;28;20294;-56
2024/01/30 06:23:28;;;;;;;15.70;8.80;;;;;;;-144.30;72.60;86571.50;5092448;28;20202;-58
2024/01/30 06:25:55;;;;;;;19.23;9.30;;;;;;;-144.30;72.67;86589.41;5092694;28;20208;-57
2024/01/30 06:28:23;;;;;;;14.63;8.60;;;;;;;-144.30;72.17;86468.09;5092387;28;20323;-57
2024/01/30 06:30:49;;;;;;;16.70;10.07;;;;;;;-144.30;72.37;86635.13;5092604;28;20195;-58
2024/01/30 06:33:16;;;;;;;14.43;9.03;;;;;;;-144.30;72.16;86633.16;5092096;28;20219;-58
2024/01/30 06:35:45;;;;;;;20.23;10.20;;;;;;;-144.30;71.81;86627.19;5092502;28;20641;-53
2024/01/30 06:38:13;;;;;;;18.27;9.37;;;;;;;-144.30;71.50;86653.03;5092295;28;20200;-56
2024/01/30 06:40:41;;;;;;;18.53;9.73;;;;;;;-144.30;71.33;86641.09;5092352;28;20205;-55
2024/01/30 06:43:09;;;;;;;17.67;10.67;;;;;;;-144.30;71.49;86633.16;5092021;28;20190;-55
2024/01/30 06:45:36;;;;;;;18.90;10.53;;;;;;;-144.30;71.55;86672.94;5075492;28;20206;-54
2024/01/30 06:48:03;;;;;;;25.57;12.23;;;;;;;-144.30;71.16;86629.19;5070748;28;20667;-54
2024/01/30 06:50:30;;;;;;;18.10;11.37;;;;;;;-144.30;70.93;86621.22;5070400;28;20291;-54
2024/01/30 06:52:57;;;;;;;17.33;10.73;;;;;;;-144.30;71.14;86619.22;5069774;28;20311;-53
2024/01/30 06:55:24;;;;;;;19.33;9.27;;;;;;;-144.30;70.76;86633.16;5070957;28;20222;-53
2024/01/30 06:57:53;;;;;;;19.03;8.80;;;;;;;-144.30;70.60;86629.19;5064944;28;20608;-53
2024/01/30 07:00:21;;;;;;;17.63;9.80;;;;;;;-144.30;71.45;86629.19;5051510;28;20565;-54
2024/01/30 07:02:48;;;;;;;21.70;9.90;;;;;;;-144.30;70.69;86639.13;5051494;28;20290;-57
2024/01/30 07:05:15;;;;;;;13.27;8.27;;;;;;;-144.30;70.77;86633.16;5051371;28;20294;-58
2024/01/30 07:07:42;;;;;;;18.40;10.07;;;;;;;-144.30;70.49;86633.16;5051518;28;20205;-57
2024/01/30 07:10:09;;;;;;;26.53;9.80;;;;;;;-144.30;70.35;86617.25;5051037;28;20203;-54
2024/01/30 07:12:36;;;;;;;18.43;9.87;;;;;;;-144.30;70.65;86633.16;5051268;28;20278;-57
2024/01/30 07:15:07;;;;;;;17.47;9.60;;;;;;;-144.30;70.33;86585.44;5051403;28;20281;-53
2024/01/30 07:17:35;;;;;;;15.50;9.37;;;;;;;-144.30;70.12;86609.28;5051438;28;20292;-54
2024/01/30 07:20:03;;;;;;;16.27;9.83;;;;;;;-144.30;69.92;86657.03;5050475;28;20194;-53
2024/01/30 07:22:30;;;;;;;18.20;9.77;;;;;;;-144.30;69.03;86585.44;5050797;28;20231;-58
2024/01/30 07:24:57;;;;;;;18.83;9.57;;;;;;;-144.30;68.35;86637.13;5051749;28;20194;-57
2024/01/30 07:27:24;;;;;;;17.20;9.00;;;;;;;-144.30;68.27;86637.13;5053797;28;20722;-57
2024/01/30 07:29:51;;;;;;;13.23;7.50;;;;;;;-144.30;68.40;86593.38;5050841;28;20203;-54
2024/01/30 07:32:19;;;;;;;14.83;7.57;;;;;;;-144.30;67.87;86617.25;5050807;28;20287;-53
2024/01/30 07:34:46;;;;;;;14.67;7.83;;;;;;;-144.30;67.65;86627.19;5050788;28;20328;-52
2024/01/30 07:37:15;;;;;;;14.17;7.43;;;;;;;-144.30;67.89;86601.34;5050489;28;20310;-54
2024/01/30 07:39:42;;;;;;;12.07;7.70;;;;;;;-144.30;67.75;86609.28;5050562;28;20202;-54
2024/01/30 07:42:09;;;;;;;11.70;7.57;;;;;;;-144.30;67.92;86605.31;5050720;28;20196;-55
2024/01/30 07:44:36;;;;;;;13.03;8.20;;;;;;;-144.30;68.06;86605.31;5050384;28;20233;-54
2024/01/30 07:47:04;;;;;;;16.57;7.60;;;;;;;-144.30;67.50;86577.47;5050797;28;20587;-58
2024/01/30 07:49:35;;;;;;;18.00;9.77;;;;;;;-144.30;67.72;86617.25;5049868;28;20449;-57
2024/01/30 07:52:05;;;;;;;17.13;8.87;;;;;;;-144.30;67.66;86661.00;5050462;28;20636;-52
2024/01/30 07:54:33;;;;;;;15.83;8.83;;;;;;;-144.30;67.46;86581.44;5050382;28;20227;-54
2024/01/30 07:57:00;;;;;;;14.43;8.80;;;;;;;-144.30;67.73;86569.50;5050445;28;20760;-56
2024/01/30 07:59:27;;;;;;;16.50;9.27;;;;;;;-144.30;67.67;86589.41;5050344;28;20239;-57
2024/01/30 08:01:54;;;;;;;21.37;9.23;;;;;;;-144.30;67.14;86587.41;5058283;28;20234;-58
2024/01/30 08:04:21;;;;;;;20.40;10.43;;;;;;;-144.30;67.03;86599.34;5058619;28;20245;-57
2024/01/30 08:06:49;;;;;;;18.67;9.93;;;;;;;-144.30;67.04;86573.50;5058995;28;20242;-57
2024/01/30 08:09:16;;;;;;;15.57;8.17;;;;;;;-144.30;66.66;86599.34;5057932;28;20256;-53
2024/01/30 08:11:43;;;;;;;12.47;7.53;;;;;;;-144.30;66.44;86617.25;5069682;28;20286;-55
2024/01/30 08:14:10;;;;;;;15.93;7.93;;;;;;;-144.30;65.86;86585.44;5068974;28;20409;-54
2024/01/30 08:16:37;;;;;;;12.70;7.70;;;;;;;-144.30;65.61;86589.41;5055990;28;20199;-54
2024/01/30 08:19:04;;;;;;;14.20;7.27;;;;;;;-144.30;65.52;86605.31;5066907;28;20222;-57
2024/01/30 08:21:36;;;;;;;9.40;6.90;;;;;;;-144.30;64.60;86577.47;5087504;28;20247;-58
2024/01/30 08:24:04;;;;;;;11.07;7.03;;;;;;;-144.30;64.10;86557.59;5090272;28;20191;-58
2024/01/30 08:26:31;;;;;;;15.33;7.40;;;;;;;-144.30;63.91;86561.56;5090181;28;20226;-58
2024/01/30 08:28:58;;;;;;;11.80;6.70;;;;;;;-144.30;63.47;86489.97;5090068;28;20267;-59
2024/01/30 08:31:25;;;;;;;10.10;6.23;;;;;;;-144.30;62.79;86450.19;5089032;28;20285;-60
2024/01/30 08:33:52;;;;;;;11.87;6.10;;;;;;;-144.30;62.46;86557.59;5090251;28;20363;-58
2024/01/30 08:36:20;;;;;;;11.30;6.07;;;;;;;-144.30;62.28;86533.72;5089814;28;20629;-58
2024/01/30 08:38:47;;;;;;;7.40;6.00;;;;;;;-144.30;61.28;86547.66;5089959;28;20286;-58
2024/01/30 08:41:15;;;;;;;8.93;5.87;;;;;;;-144.30;61.49;86503.91;5089886;28;20293;-58
2024/01/30 08:43:44;;;;;;;9.43;6.27;;;;;;;-144.30;61.50;86533.72;5089604;28;20233;-58
2024/01/30 08:46:11;;;;;;;10.43;5.93;;;;;;;-144.30;61.18;86523.78;5089785;28;20569;-59
2024/01/30 08:48:38;;;;;;;8.57;5.83;;;;;;;-144.30;61.06;86529.75;5089754;28;20285;-59
2024/01/30 08:51:08;;;;;;;9.60;6.33;;;;;;;-144.30;60.96;86493.94;5090035;28;20312;-58
2024/01/30 08:53:35;;;;;;;10.43;6.17;;;;;;;-144.30;60.26;86585.44;5089568;28;20314;-57
2024/01/30 08:56:03;;;;;;;9.73;6.27;;;;;;;-144.30;60.51;86551.63;5089888;28;20206;-59
2024/01/30 08:58:31;;;;;;;10.30;6.40;;;;;;;-144.30;59.63;86788.28;5089678;28;20693;-57
2024/01/30 09:00:58;;;;;;;10.43;5.77;;;;;;;-144.30;59.21;86537.69;5079189;28;20192;-59
2024/01/30 09:03:25;;;;;;;8.37;6.37;;;;;;;-144.30;58.87;86525.75;5069553;28;20315;-58
2024/01/30 09:05:52;;;;;;;10.37;6.17;;;;;;;-144.30;58.40;86527.75;5060675;28;20300;-57
2024/01/30 09:08:19;;;;;;;17.60;5.73;;;;;;;-144.30;58.96;86482.03;5049260;28;20203;-58
2024/01/30 09:10:46;;;;;;;8.60;6.53;;;;;;;-144.30;58.74;86515.81;5049404;28;20700;-57
2024/01/30 09:13:13;;;;;;;10.63;6.20;;;;;;;-144.30;58.41;86505.88;5049193;28;20235;-57
2024/01/30 09:15:42;;;;;;;11.17;6.70;;;;;;;-144.30;57.72;86489.97;5049119;28;20296;-58
2024/01/30 09:18:09;;;;;;;23.63;8.87;;;;;;;-144.30;57.84;86466.09;5049266;28;20239;-59
2024/01/30 09:20:36;;;;;;;16.40;9.17;;;;;;;-144.30;57.87;86519.81;5049024;28;20199;-58
2024/01/30 09:23:03;;;;;;;19.40;8.93;;;;;;;-144.30;57.80;86503.91;5049308;28;20727;-55
2024/01/30 09:25:29;;;;;;;15.37;8.10;;;;;;;-144.30;57.97;86517.81;5048988;28;20204;-54
2024/01/30 09:27:56;;;;;;;13.37;7.50;;;;;;;-144.30;58.07;86511.84;5048777;28;20266;-54
2024/01/30 09:30:23;;;;;;;10.00;6.40;;;;;;;-144.30;57.84;86450.19;5055574;28;20227;-55
2024/01/30 09:32:52;;;;;;;16.23;6.43;;;;;;;-144.30;57.99;86535.72;5068414;28;20195;-54
2024/01/30 09:35:19;;;;;;;11.63;6.30;;;;;;;-144.30;58.10;86515.81;5049095;28;20227;-54
2024/01/30 09:37:46;;;;;;;7.40;6.07;;;;;;;-144.30;58.02;86499.91;5049077;28;20231;-54
2024/01/30 09:40:13;;;;;;;14.27;7.00;;;;;;;-144.30;58.21;86521.78;5054776;28;20206;-53
2024/01/30 09:42:41;;;;;;;13.40;6.83;;;;;;;-144.30;57.91;86468.09;5059198;28;20200;-54
2024/01/30 09:45:09;;;;;;;9.80;6.90;;;;;;;-144.30;57.64;86493.94;5062140;28;20204;-55
2024/01/30 09:47:42;;;;;;;18.23;7.17;;;;;;;-144.30;57.55;86489.97;5059872;28;20200;-53
2024/01/30 09:50:12;;;;;;;14.23;7.80;;;;;;;-144.30;57.36;86489.97;5072485;28;20287;-55
2024/01/30 09:52:40;;;;;;;15.90;7.50;;;;;;;-144.30;57.60;86474.06;5072240;28;20200;-55
2024/01/30 09:55:08;;;;;;;23.30;10.17;;;;;;;-144.30;57.67;86486.00;5065155;28;20271;-55
2024/01/30 09:57:35;;;;;;;15.73;8.20;;;;;;;-144.30;57.53;86509.84;5076383;28;20203;-55
2024/01/30 10:00:03;;;;;;;16.33;7.60;;;;;;;-144.30;57.22;86482.03;5091983;28;20200;-53
2024/01/30 10:02:30;;;;;;;10.13;7.20;;;;;;;-144.30;57.14;86476.06;5091883;28;20191;-54
2024/01/30 10:04:57;;;;;;;13.47;7.40;;;;;;;-144.30;57.06;86462.13;5092663;28;20670;-54
2024/01/30 10:07:25;;;;;;;18.63;10.10;;;;;;;-144.30;57.12;86521.78;5092370;28;20194;-54
2024/01/30 10:09:55;;;;;;;14.73;7.77;;;;;;;-144.30;56.73;86460.16;5092632;28;20253;-56
2024/01/30 10:12:22;;;;;;;10.60;6.90;;;;;;;-144.30;56.48;86432.31;5092752;28;20202;-53
2024/01/30 10:14:49;;;;;;;11.03;7.17;;;;;;;-144.30;56.62;86478.03;5092642;28;20379;-57
2024/01/30 10:17:16;;;;;;;14.30;7.90;;;;;;;-144.30;56.80;86480.03;5092567;28;20801;-57
2024/01/30 10:19:43;;;;;;;12.53;7.63;;;;;;;-144.30;56.83;86462.13;5092867;28;20284;-58
2024/01/30 10:22:10;;;;;;;15.17;7.27;;;;;;;-144.30;56.27;86486.00;5092288;28;20203;-59
2024/01/30 10:24:39;;;;;;;9.77;7.00;;;;;;;-144.30;56.10;86454.19;5092512;28;20495;-59
2024/01/30 10:27:07;;;;;;;7.87;6.13;;;;;;;-144.30;55.50;86497.94;5092456;28;20631;-56
2024/01/30 10:29:34;;;;;;;8.77;5.73;;;;;;;-144.30;55.34;86478.03;5071162;28;20625;-58
2024/01/30 10:32:01;;;;;;;12.40;6.33;;;;;;;-144.30;55.27;86470.09;5070391;28;20286;-57
2024/01/30 10:34:29;;;;;;;10.27;6.27;;;;;;;-144.30;55.30;86267.25;5071735;28;20707;-58
2024/01/30 10:37:01;;;;;;;10.40;6.87;;;;;;;-144.30;55.34;86426.34;5071623;28;20198;-58
2024/01/30 10:39:31;;;;;;;10.97;6.37;;;;;;;-144.30;54.64;86448.22;5071863;28;20195;-57
2024/01/30 10:42:06;;;;;;;9.33;6.17;;;;;;;-144.30;54.70;86539.69;5071641;28;20200;-58
2024/01/30 10:44:40;;;;;;;11.40;6.40;;;;;;;-144.30;53.99;86472.06;5071536;28;20196;-54
2024/01/30 10:47:10;;;;;;;11.07;6.53;;;;;;;-144.30;54.96;86440.25;5071821;28;20286;-53
2024/01/30 10:49:38;;;;;;;8.57;6.17;;;;;;;-144.30;54.76;86420.38;5071482;28;20283;-54
2024/01/30 10:52:07;;;;;;;80.13;34.60;;;;;;;-144.30;54.57;86434.28;5071104;28;20200;-55
2024/01/30 10:54:36;;;;;;;10.17;7.17;;;;;;;-144.30;53.37;86422.38;5070406;28;20591;-54
2024/01/30 10:57:05;;;;;;;14.03;7.10;;;;;;;-144.30;53.63;86398.50;5071432;28;20196;-54
2024/01/30 10:59:34;;;;;;;11.73;6.93;;;;;;;-144.30;52.98;86428.31;5071186;28;20295;-55
2024/01/30 11:02:02;;;;;;;14.07;7.13;;;;;;;-144.30;53.02;86422.38;5071033;28;20231;-55
2024/01/30 11:04:37;;;;;;;11.87;6.07;;;;;;;-144.30;52.96;86426.34;5071043;28;20958;-54
2024/01/30 11:07:04;;;;;;;12.07;7.47;;;;;;;-144.30;52.87;86410.44;5070955;28;20706;-55
2024/01/30 11:09:31;;;;;;;11.97;7.50;;;;;;;-144.30;52.15;86404.47;5070885;28;20695;-54
2024/01/30 11:12:00;;;;;;;9.90;6.47;;;;;;;-144.30;51.94;86402.47;5070777;28;20203;-54